Time;durP1;ratioP1;P1;durP2;ratioP2;P2;SDS_P1;SDS_P2;PMS_P1;PMS_P2;Temp;Humidity;BMP_temperature;BMP_pressure;BME280_temperature;BME280_humidity;BME280_pressure;Samples;Min_cycle;Max_cycle;Signal;HPM_P1;HPM_P2
2023/07/21 00:01:36;;;;;;;27.48;26.10;;;20.50;98.00;;;;;;5034118;28;20042;-74
2023/07/21 00:04:05;;;;;;;31.40;29.40;;;20.50;98.00;;;;;;5034894;28;20060;-75
2023/07/21 00:06:31;;;;;;;25.10;23.83;;;20.50;98.10;;;;;;5034132;28;20056;-75
2023/07/21 00:08:57;;;;;;;26.75;25.38;;;20.50;98.10;;;;;;5034846;28;20378;-75
2023/07/21 00:11:24;;;;;;;27.45;26.00;;;20.50;98.20;;;;;;5034111;28;20044;-76
2023/07/21 00:13:50;;;;;;;31.95;30.33;;;20.50;98.20;;;;;;5034520;28;20026;-75
2023/07/21 00:16:18;;;;;;;27.92;26.58;;;20.60;98.20;;;;;;5033934;28;20483;-74
2023/07/21 00:18:46;;;;;;;29.13;27.45;;;20.70;98.20;;;;;;5034700;28;20490;-75
2023/07/21 00:21:12;;;;;;;28.85;27.27;;;20.60;98.30;;;;;;5034634;28;20050;-75
2023/07/21 00:23:38;;;;;;;28.05;26.60;;;20.60;98.30;;;;;;5034588;28;20038;-74
2023/07/21 00:26:04;;;;;;;27.75;26.25;;;20.60;98.50;;;;;;5033723;28;20477;-75
2023/07/21 00:28:30;;;;;;;27.50;25.95;;;20.50;99.00;;;;;;5034212;28;20025;-75
2023/07/21 00:30:56;;;;;;;27.98;26.33;;;20.50;99.30;;;;;;5033557;28;20521;-75
2023/07/21 00:33:25;;;;;;;28.60;26.88;;;20.50;99.20;;;;;;5034241;28;20037;-75
2023/07/21 00:35:51;;;;;;;27.83;26.42;;;20.70;99.10;;;;;;5033616;28;20394;-75
2023/07/21 00:38:18;;;;;;;29.38;27.88;;;20.70;99.10;;;;;;5034190;28;20037;-74
2023/07/21 00:40:44;;;;;;;28.80;27.27;;;20.60;99.10;;;;;;5033312;28;20463;-75
2023/07/21 00:43:17;;;;;;;27.35;25.80;;;20.70;99.20;;;;;;5032755;28;20041;-75
2023/07/21 00:45:44;;;;;;;27.55;25.95;;;20.60;99.30;;;;;;5033685;28;20045;-75
2023/07/21 00:48:10;;;;;;;29.02;27.30;;;20.60;99.30;;;;;;5032577;28;20033;-75
2023/07/21 00:50:47;;;;;;;29.45;27.95;;;20.70;99.20;;;;;;5033254;28;20046;-75
2023/07/21 00:53:14;;;;;;;27.80;26.27;;;20.70;99.30;;;;;;5032109;28;20038;-75
2023/07/21 00:55:41;;;;;;;29.50;27.85;;;20.60;99.40;;;;;;5033250;28;20048;-75
2023/07/21 00:58:10;;;;;;;31.67;30.00;;;20.60;99.60;;;;;;5033995;28;20045;-75
2023/07/21 01:00:40;;;;;;;35.35;33.35;;;20.70;99.50;;;;;;5033287;28;20037;-75
2023/07/21 01:03:08;;;;;;;34.38;32.55;;;20.70;99.50;;;;;;5033959;28;20367;-76
2023/07/21 01:05:36;;;;;;;36.40;34.55;;;20.60;99.60;;;;;;5032296;28;20029;-75
2023/07/21 01:08:04;;;;;;;38.53;36.50;;;20.60;99.80;;;;;;5032288;28;20045;-76
2023/07/21 01:10:34;;;;;;;34.28;32.50;;;20.60;99.90;;;;;;5031919;28;20056;-75
2023/07/21 01:13:01;;;;;;;26.60;25.10;;;20.50;99.90;;;;;;5032390;28;20026;-75
2023/07/21 01:15:28;;;;;;;20.95;19.55;;;20.20;99.90;;;;;;5031348;28;20256;-76
2023/07/21 01:17:54;;;;;;;18.60;17.38;;;20.10;99.90;;;;;;5033294;28;20041;-76
2023/07/21 01:20:24;;;;;;;18.92;17.92;;;20.10;99.90;;;;;;5031659;28;20041;-76
2023/07/21 01:22:57;;;;;;;20.57;19.07;;;20.10;99.90;;;;;;5033405;28;20105;-75
2023/07/21 01:25:23;;;;;;;27.40;25.75;;;20.20;99.90;;;;;;5031553;28;20268;-76
2023/07/21 01:27:49;;;;;;;31.63;29.92;;;20.20;99.90;;;;;;5031777;28;20033;-76
2023/07/21 01:30:17;;;;;;;22.73;21.50;;;20.20;99.90;;;;;;5031325;28;20033;-74
2023/07/21 01:32:45;;;;;;;15.10;14.13;;;20.30;99.90;;;;;;5031991;28;20029;-75
2023/07/21 01:35:11;;;;;;;16.00;15.00;;;20.20;99.90;;;;;;5031410;28;20037;-76
2023/07/21 01:37:38;;;;;;;16.45;15.40;;;20.10;99.90;;;;;;5031195;28;20057;-75
2023/07/21 01:40:09;;;;;;;13.88;12.90;;;20.20;99.90;;;;;;5032619;28;20029;-75
2023/07/21 01:42:35;;;;;;;;;;;20.20;99.90;;;;;;5028131;28;20046;-75
2023/07/21 01:45:02;;;;;;;13.05;11.98;;;20.00;99.90;;;;;;5013257;28;20255;-75
2023/07/21 01:47:31;;;;;;;15.85;14.55;;;19.80;99.90;;;;;;5031027;28;20487;-75
2023/07/21 01:49:58;;;;;;;12.65;11.82;;;19.60;99.90;;;;;;5031219;28;20521;-75
2023/07/21 01:52:26;;;;;;;11.38;10.68;;;19.50;99.90;;;;;;5030665;28;20042;-75
2023/07/21 01:54:55;;;;;;;15.45;14.45;;;19.50;99.90;;;;;;5032398;28;20048;-75
2023/07/21 01:57:25;;;;;;;12.65;11.85;;;19.40;99.90;;;;;;5031127;28;20041;-75
2023/07/21 01:59:51;;;;;;;13.63;12.82;;;19.30;99.90;;;;;;5029260;28;20022;-76
2023/07/21 02:02:18;;;;;;;11.45;10.75;;;19.40;99.90;;;;;;5028112;28;20045;-75
2023/07/21 02:04:51;;;;;;;11.70;10.80;;;19.40;99.90;;;;;;5023128;28;20463;-76
2023/07/21 02:07:20;;;;;;;11.93;10.95;;;19.40;99.90;;;;;;5030656;28;20033;-74
2023/07/21 02:09:50;;;;;;;12.40;11.70;;;19.40;99.90;;;;;;5011661;28;20045;-75
2023/07/21 02:12:16;;;;;;;12.50;11.63;;;19.50;99.90;;;;;;5028605;28;20033;-75
2023/07/21 02:14:42;;;;;;;15.27;14.38;;;19.40;99.90;;;;;;5029952;28;20045;-77
2023/07/21 02:17:08;;;;;;;10.05;9.35;;;19.40;99.90;;;;;;5030421;28;20053;-76
2023/07/21 02:19:35;;;;;;;10.02;9.32;;;19.40;99.90;;;;;;5031400;28;20029;-75
2023/07/21 02:22:01;;;;;;;10.05;9.25;;;19.40;99.90;;;;;;5030081;28;20034;-75
2023/07/21 02:24:27;;;;;;;9.63;8.93;;;19.30;99.90;;;;;;5029599;28;20525;-76
2023/07/21 02:26:55;;;;;;;9.27;8.68;;;19.20;99.90;;;;;;5030788;28;20033;-76
2023/07/21 02:29:21;;;;;;;10.52;9.63;;;19.30;99.90;;;;;;5031174;28;20033;-76
2023/07/21 02:31:49;;;;;;;10.68;9.77;;;19.30;99.90;;;;;;5030489;28;20470;-75
2023/07/21 02:34:15;;;;;;;9.05;8.35;;;19.30;99.90;;;;;;5031311;28;20065;-76
2023/07/21 02:36:41;;;;;;;13.05;12.15;;;19.30;99.90;;;;;;5029402;28;20037;-76
2023/07/21 02:39:07;;;;;;;10.95;10.15;;;19.40;99.90;;;;;;5032143;28;20026;-76
2023/07/21 02:41:33;;;;;;;18.55;16.92;;;19.30;99.90;;;;;;5032155;28;20037;-76
2023/07/21 02:43:59;;;;;;;21.48;20.27;;;19.30;99.90;;;;;;5032240;28;20364;-76
2023/07/21 02:46:25;;;;;;;17.88;16.77;;;19.30;99.90;;;;;;5031531;28;20040;-76
2023/07/21 02:48:51;;;;;;;30.23;28.33;;;19.40;99.90;;;;;;5031915;28;20410;-75
2023/07/21 02:51:18;;;;;;;42.30;40.08;;;19.50;99.90;;;;;;5031338;28;20053;-75
2023/07/21 02:53:44;;;;;;;53.53;50.70;;;19.30;99.90;;;;;;5032090;28;20141;-75
2023/07/21 02:56:10;;;;;;;23.05;21.63;;;19.20;99.90;;;;;;5031801;28;20048;-76
2023/07/21 02:58:36;;;;;;;49.40;46.75;;;19.20;99.90;;;;;;5031914;28;20034;-76
2023/07/21 03:01:03;;;;;;;17.10;15.93;;;19.20;99.90;;;;;;5030019;28;20048;-75
2023/07/21 03:03:32;;;;;;;34.63;32.65;;;19.20;99.90;;;;;;5032103;28;20041;-75
2023/07/21 03:05:59;;;;;;;24.20;22.73;;;19.20;99.90;;;;;;5031489;28;20046;-76
2023/07/21 03:08:30;;;;;;;15.65;14.55;;;19.20;99.90;;;;;;5032074;28;20032;-75
2023/07/21 03:10:56;;;;;;;16.27;15.32;;;19.30;99.90;;;;;;5030595;28;20038;-74
2023/07/21 03:13:24;;;;;;;15.10;14.20;;;19.30;99.90;;;;;;5031893;28;20041;-76
2023/07/21 03:15:51;;;;;;;14.20;13.20;;;19.30;99.90;;;;;;5030092;28;20034;-75
2023/07/21 03:18:17;;;;;;;15.85;14.90;;;19.30;99.90;;;;;;5031855;28;20033;-74
2023/07/21 03:20:43;;;;;;;15.27;14.07;;;19.20;99.90;;;;;;5031304;28;20037;-75
2023/07/21 03:23:11;;;;;;;16.58;15.52;;;19.10;99.90;;;;;;5031804;28;20033;-76
2023/07/21 03:25:45;;;;;;;15.18;14.20;;;19.10;99.90;;;;;;5031600;28;20108;-75
2023/07/21 03:28:11;;;;;;;17.17;15.90;;;19.10;99.90;;;;;;5032087;28;20045;-76
2023/07/21 03:30:37;;;;;;;19.50;18.23;;;19.00;99.90;;;;;;5031077;28;20060;-75
2023/07/21 03:33:03;;;;;;;16.52;15.35;;;19.10;99.90;;;;;;5030188;28;20033;-75
2023/07/21 03:35:29;;;;;;;16.88;15.55;;;18.90;99.90;;;;;;5034467;28;20422;-76
2023/07/21 03:37:57;;;;;;;17.67;16.58;;;19.00;99.90;;;;;;5034944;28;20113;-75
2023/07/21 03:40:23;;;;;;;20.73;19.42;;;19.10;99.90;;;;;;5035035;28;20037;-76
2023/07/21 03:42:49;;;;;;;23.30;21.90;;;19.20;99.90;;;;;;5035380;28;20060;-75
2023/07/21 03:45:16;;;;;;;26.77;25.08;;;19.20;99.90;;;;;;5034720;28;20418;-76
2023/07/21 03:47:42;;;;;;;25.10;23.52;;;19.20;99.90;;;;;;5034978;28;20030;-75
2023/07/21 03:50:08;;;;;;;22.17;20.77;;;19.20;99.90;;;;;;5034524;28;20494;-76
2023/07/21 03:52:34;;;;;;;23.65;22.15;;;19.10;99.90;;;;;;5015090;28;20044;-75
2023/07/21 03:55:01;;;;;;;36.20;34.13;;;19.10;99.90;;;;;;5015091;28;20025;-76
2023/07/21 03:57:27;;;;;;;39.50;37.38;;;19.20;99.90;;;;;;5033833;28;20037;-75
2023/07/21 03:59:53;;;;;;;30.00;28.35;;;19.20;99.90;;;;;;5034729;28;20498;-76
2023/07/21 04:02:19;;;;;;;29.35;27.60;;;19.10;99.90;;;;;;5034043;28;20049;-75
2023/07/21 04:04:46;;;;;;;24.38;22.90;;;19.00;99.90;;;;;;5033414;28;20033;-75
2023/07/21 04:07:12;;;;;;;16.58;15.27;;;19.00;99.90;;;;;;5034864;28;20038;-76
2023/07/21 04:09:38;;;;;;;18.50;17.38;;;19.00;99.90;;;;;;5034665;28;20411;-75
2023/07/21 04:12:06;;;;;;;11.02;10.13;;;19.00;99.90;;;;;;5033560;28;20040;-75
2023/07/21 04:14:32;;;;;;;11.88;10.93;;;18.90;99.90;;;;;;5034327;28;20040;-76
2023/07/21 04:16:58;;;;;;;14.10;13.05;;;18.80;99.90;;;;;;5033516;28;20046;-75
2023/07/21 04:19:27;;;;;;;17.00;15.90;;;18.80;99.90;;;;;;5033026;28;20049;-76
2023/07/21 04:21:53;;;;;;;16.77;15.77;;;18.90;99.90;;;;;;5034087;28;20029;-76
2023/07/21 04:24:20;;;;;;;17.00;16.05;;;19.00;99.90;;;;;;5033178;28;20025;-75
2023/07/21 04:26:46;;;;;;;16.45;15.35;;;18.90;99.90;;;;;;5034087;28;20025;-76
2023/07/21 04:29:12;;;;;;;17.63;16.45;;;19.10;99.90;;;;;;5034341;28;20025;-76
2023/07/21 04:31:38;;;;;;;15.57;14.48;;;19.20;99.90;;;;;;5033526;28;20121;-75
2023/07/21 04:34:04;;;;;;;15.63;14.50;;;19.20;99.90;;;;;;5033844;28;20037;-75
2023/07/21 04:36:30;;;;;;;16.60;15.60;;;19.10;99.90;;;;;;5033712;28;20033;-76
2023/07/21 04:38:56;;;;;;;12.23;11.40;;;19.10;99.90;;;;;;5034105;28;20030;-75
2023/07/21 04:41:23;;;;;;;11.93;11.02;;;19.10;99.90;;;;;;5033723;28;20037;-75
2023/07/21 04:43:50;;;;;;;16.08;14.90;;;19.10;99.90;;;;;;5034582;28;20475;-75
2023/07/21 04:46:16;;;;;;;14.77;13.88;;;19.20;99.90;;;;;;5032793;28;20044;-75
2023/07/21 04:48:43;;;;;;;14.45;13.55;;;19.10;99.90;;;;;;5033713;28;20355;-75
2023/07/21 04:51:09;;;;;;;16.75;15.38;;;19.10;99.90;;;;;;5033766;28;20046;-76
2023/07/21 04:53:36;;;;;;;15.43;14.35;;;19.10;99.90;;;;;;5033920;28;20060;-75
2023/07/21 04:56:05;;;;;;;14.07;12.98;;;19.10;99.90;;;;;;5033974;28;20060;-76
2023/07/21 04:58:32;;;;;;;13.73;12.77;;;19.10;99.90;;;;;;5033415;28;20072;-76
2023/07/21 05:00:58;;;;;;;10.07;9.45;;;19.00;99.90;;;;;;5032688;28;20487;-76
2023/07/21 05:03:24;;;;;;;11.95;11.23;;;19.00;99.90;;;;;;5033298;28;20040;-75
2023/07/21 05:05:51;;;;;;;11.90;11.13;;;19.10;99.90;;;;;;5033210;28;20474;-76
2023/07/21 05:08:17;;;;;;;12.88;12.00;;;19.20;99.90;;;;;;5033363;28;20033;-75
2023/07/21 05:10:43;;;;;;;13.73;12.82;;;19.20;99.90;;;;;;5033322;28;20040;-76
2023/07/21 05:13:09;;;;;;;11.52;10.73;;;19.20;99.90;;;;;;5033515;28;20053;-76
2023/07/21 05:15:35;;;;;;;11.88;11.15;;;19.20;99.90;;;;;;5032669;28;20478;-75
2023/07/21 05:18:02;;;;;;;12.18;11.38;;;19.20;99.90;;;;;;5032862;28;20045;-75
2023/07/21 05:20:28;;;;;;;13.35;12.20;;;19.30;99.90;;;;;;5033099;28;20028;-76
2023/07/21 05:22:54;;;;;;;11.63;10.65;;;19.40;99.90;;;;;;5033231;28;20037;-75
2023/07/21 05:25:20;;;;;;;10.85;10.05;;;19.40;99.90;;;;;;5032850;28;20029;-75
2023/07/21 05:27:47;;;;;;;11.40;10.60;;;19.40;99.90;;;;;;5032933;28;20040;-76
2023/07/21 05:30:13;;;;;;;14.43;13.15;;;19.40;99.90;;;;;;5032192;28;20045;-76
2023/07/21 05:32:41;;;;;;;13.63;12.73;;;19.30;99.90;;;;;;5032972;28;20033;-75
2023/07/21 05:35:13;;;;;;;15.02;13.73;;;19.20;99.90;;;;;;5032854;28;20402;-76
2023/07/21 05:37:39;;;;;;;19.20;17.70;;;19.30;99.90;;;;;;5029795;28;20060;-76
2023/07/21 05:40:07;;;;;;;18.50;17.10;;;19.40;99.90;;;;;;5032854;28;20455;-76
2023/07/21 05:42:34;;;;;;;20.10;18.85;;;19.50;99.90;;;;;;5032700;28;20398;-76
2023/07/21 05:45:00;;;;;;;14.40;12.82;;;19.50;99.90;;;;;;5032541;28;20029;-75
2023/07/21 05:47:26;;;;;;;14.70;13.70;;;19.60;99.90;;;;;;5032387;28;20085;-76
2023/07/21 05:49:56;;;;;;;15.77;14.38;;;19.60;99.90;;;;;;5032482;28;20043;-76
2023/07/21 05:52:23;;;;;;;18.65;17.30;;;19.50;99.90;;;;;;5032742;28;20057;-76
2023/07/21 05:54:49;;;;;;;23.05;21.65;;;19.50;99.90;;;;;;5033278;28;20038;-76
2023/07/21 05:57:15;;;;;;;24.40;22.83;;;19.30;99.90;;;;;;5031559;28;20537;-75
2023/07/21 05:59:42;;;;;;;22.70;21.25;;;19.30;99.90;;;;;;5032075;28;20040;-75
2023/07/21 06:02:09;;;;;;;21.83;20.27;;;19.30;99.90;;;;;;5032186;28;20041;-76
2023/07/21 06:04:35;;;;;;;18.98;17.67;;;19.40;99.90;;;;;;5032444;28;20383;-76
2023/07/21 06:07:01;;;;;;;22.00;20.60;;;19.40;99.90;;;;;;5032145;28;20044;-76
2023/07/21 06:09:27;;;;;;;22.02;20.60;;;19.30;99.90;;;;;;5032698;28;20026;-76
2023/07/21 06:11:53;;;;;;;23.60;21.95;;;19.30;99.90;;;;;;5032096;28;20399;-75
2023/07/21 06:14:19;;;;;;;29.45;27.40;;;19.40;99.90;;;;;;5032078;28;20021;-75
2023/07/21 06:16:45;;;;;;;32.60;30.80;;;19.30;99.90;;;;;;5031879;28;20406;-75
2023/07/21 06:19:11;;;;;;;32.65;30.60;;;19.20;99.90;;;;;;5032731;28;20052;-75
2023/07/21 06:21:37;;;;;;;20.60;19.13;;;19.20;99.90;;;;;;5032149;28;20030;-74
2023/07/21 06:24:04;;;;;;;25.98;24.33;;;19.30;99.90;;;;;;5032599;28;20033;-75
2023/07/21 06:26:30;;;;;;;23.92;22.27;;;19.30;99.90;;;;;;5031942;28;20041;-75
2023/07/21 06:28:57;;;;;;;24.98;23.17;;;19.20;99.90;;;;;;5031609;28;20045;-74
2023/07/21 06:31:23;;;;;;;16.25;15.07;;;19.30;99.90;;;;;;5030455;28;20037;-75
2023/07/21 06:33:50;;;;;;;21.35;20.00;;;19.20;99.90;;;;;;5032229;28;20447;-75
2023/07/21 06:36:17;;;;;;;22.90;21.45;;;19.20;99.90;;;;;;5031771;28;20036;-74
2023/07/21 06:38:43;;;;;;;17.40;16.30;;;19.30;99.90;;;;;;5032316;28;20049;-75
2023/07/21 06:41:10;;;;;;;18.00;16.70;;;19.30;99.90;;;;;;5031920;28;20038;-75
2023/07/21 06:43:36;;;;;;;16.17;15.02;;;19.30;99.90;;;;;;5030743;28;20026;-73
2023/07/21 06:46:05;;;;;;;12.57;11.63;;;19.40;99.90;;;;;;5031532;28;20040;-75
2023/07/21 06:48:32;;;;;;;10.27;9.32;;;19.60;99.90;;;;;;5032011;28;20486;-75
2023/07/21 06:50:58;;;;;;;11.35;10.55;;;19.80;99.90;;;;;;5031474;28;20056;-75
2023/07/21 06:53:24;;;;;;;12.48;11.48;;;20.00;99.90;;;;;;5032241;28;20068;-76
2023/07/21 06:55:51;;;;;;;19.65;18.60;;;20.10;99.90;;;;;;5030543;28;20036;-76
2023/07/21 06:58:18;;;;;;;27.70;26.05;;;20.30;99.90;;;;;;5031596;28;20055;-75
2023/07/21 07:00:44;;;;;;;38.30;36.03;;;20.50;99.90;;;;;;5031413;28;20037;-75
2023/07/21 07:03:10;;;;;;;55.53;52.60;;;20.80;99.90;;;;;;5031921;28;20053;-75
2023/07/21 07:05:36;;;;;;;72.50;68.85;;;21.10;99.90;;;;;;5031621;28;20033;-73
2023/07/21 07:08:02;;;;;;;68.10;64.60;;;21.40;99.90;;;;;;5032380;28;20049;-76
2023/07/21 07:10:28;;;;;;;89.90;85.60;;;21.60;99.90;;;;;;5035076;28;20490;-76
2023/07/21 07:12:54;;;;;;;96.57;91.80;;;21.70;99.90;;;;;;5035400;28;20033;-76
2023/07/21 07:15:20;;;;;;;94.03;89.55;;;21.60;99.90;;;;;;5035504;28;20033;-76
2023/07/21 07:17:46;;;;;;;102.85;97.78;;;21.70;99.90;;;;;;5035549;28;20482;-75
2023/07/21 07:20:12;;;;;;;89.28;84.90;;;21.70;99.90;;;;;;5035514;28;20029;-76
2023/07/21 07:22:39;;;;;;;83.03;78.97;;;21.80;99.90;;;;;;5035573;28;20359;-75
2023/07/21 07:25:05;;;;;;;83.97;79.78;;;21.80;99.90;;;;;;5035929;28;20037;-75
2023/07/21 07:27:31;;;;;;;72.85;69.07;;;21.70;99.90;;;;;;5033280;28;20045;-75
2023/07/21 07:29:57;;;;;;;72.07;68.38;;;21.50;99.90;;;;;;5035420;28;20060;-75
2023/07/21 07:32:23;;;;;;;74.47;70.75;;;21.70;99.90;;;;;;5034518;28;20056;-76
2023/07/21 07:34:53;;;;;;;67.68;64.25;;;21.70;99.90;;;;;;5035347;28;20022;-76
2023/07/21 07:37:19;;;;;;;78.10;74.15;;;21.70;99.90;;;;;;5033550;28;20044;-76
2023/07/21 07:39:45;;;;;;;72.38;68.78;;;21.70;99.90;;;;;;5035057;28;20033;-76
2023/07/21 07:42:12;;;;;;;67.80;64.13;;;21.50;99.90;;;;;;5034670;28;20041;-77
2023/07/21 07:44:39;;;;;;;80.40;76.00;;;21.40;99.90;;;;;;5035184;28;20033;-75
2023/07/21 07:47:05;;;;;;;74.35;70.07;;;21.40;99.90;;;;;;5034490;28;20044;-75
2023/07/21 07:49:31;;;;;;;87.55;83.05;;;21.30;99.90;;;;;;5034878;28;20045;-75
2023/07/21 07:51:57;;;;;;;92.47;87.90;;;21.40;99.90;;;;;;5034899;28;20041;-75
2023/07/21 07:54:23;;;;;;;74.47;70.60;;;21.40;99.90;;;;;;5034964;28;20509;-75
2023/07/21 07:56:51;;;;;;;65.13;61.78;;;21.40;99.90;;;;;;5034331;28;20030;-75
2023/07/21 07:59:18;;;;;;;74.50;70.53;;;21.40;99.90;;;;;;5035111;28;20407;-76
2023/07/21 08:01:44;;;;;;;69.07;65.47;;;21.60;99.90;;;;;;5034204;28;20029;-75
2023/07/21 08:04:10;;;;;;;82.78;78.53;;;21.70;99.90;;;;;;5034677;28;20056;-76
2023/07/21 08:06:36;;;;;;;71.72;68.13;;;21.80;99.90;;;;;;5034412;28;20025;-76
2023/07/21 08:09:03;;;;;;;38.40;36.42;;;22.10;99.90;;;;;;5034631;28;20037;-75
2023/07/21 08:11:29;;;;;;;43.83;41.30;;;22.50;99.90;;;;;;5034205;28;20048;-76
2023/07/21 08:13:55;;;;;;;39.03;37.05;;;22.60;99.90;;;;;;5034492;28;20025;-76
2023/07/21 08:16:21;;;;;;;49.75;47.10;;;22.80;99.60;;;;;;5033722;28;20040;-76
2023/07/21 08:18:47;;;;;;;47.30;44.90;;;22.90;99.20;;;;;;5034403;28;20033;-76
2023/07/21 08:21:21;;;;;;;51.40;48.58;;;23.00;99.00;;;;;;5033251;28;20052;-75
2023/07/21 08:23:48;;;;;;;38.90;36.90;;;23.10;99.00;;;;;;5034360;28;20036;-76
2023/07/21 08:26:15;;;;;;;44.88;42.47;;;23.10;98.40;;;;;;5032784;28;20414;-75
2023/07/21 08:28:41;;;;;;;27.90;26.30;;;22.80;98.10;;;;;;5033152;28;20037;-75
2023/07/21 08:31:08;;;;;;;30.55;28.95;;;22.50;97.60;;;;;;5033659;28;20033;-75
2023/07/21 08:33:35;;;;;;;23.40;22.23;;;22.40;98.50;;;;;;5034518;28;20042;-75
2023/07/21 08:36:02;;;;;;;19.85;18.60;;;22.50;98.50;;;;;;5033815;28;20025;-75
2023/07/21 08:38:28;;;;;;;18.55;16.95;;;22.80;97.70;;;;;;5033988;28;20033;-75
2023/07/21 08:41:05;;;;;;;19.60;18.40;;;23.00;97.50;;;;;;5033504;28;20025;-75
2023/07/21 08:43:31;;;;;;;23.38;21.92;;;22.80;97.20;;;;;;5032403;28;20513;-75
2023/07/21 08:46:01;;;;;;;18.15;17.15;;;22.70;98.00;;;;;;5033391;28;20041;-75
2023/07/21 08:48:28;;;;;;;15.60;14.70;;;22.80;97.50;;;;;;5033832;28;20022;-74
2023/07/21 08:50:55;;;;;;;16.83;15.75;;;23.10;97.10;;;;;;5033760;28;20060;-75
2023/07/21 08:53:25;;;;;;;16.48;15.57;;;23.20;97.10;;;;;;5032517;28;20037;-75
2023/07/21 08:55:56;;;;;;;21.98;20.60;;;23.40;97.30;;;;;;5033562;28;20470;-75
2023/07/21 08:58:22;;;;;;;23.58;21.92;;;23.40;96.60;;;;;;5033711;28;20033;-75
2023/07/21 09:00:49;;;;;;;21.90;20.58;;;23.40;97.10;;;;;;5032852;28;20406;-76
2023/07/21 09:03:33;;;;;;;24.05;22.75;;;23.60;96.90;;;;;;5033801;28;20042;-75
2023/07/21 09:06:01;;;;;;;23.90;22.10;;;24.00;96.30;;;;;;5033249;28;20033;-74
2023/07/21 09:08:28;;;;;;;20.42;19.25;;;24.20;95.30;;;;;;5033168;28;20045;-74
2023/07/21 09:11:01;;;;;;;22.50;21.13;;;24.20;95.20;;;;;;5033253;28;20041;-75
2023/07/21 09:13:28;;;;;;;30.42;28.75;;;24.30;94.00;;;;;;5033449;28;20382;-75
2023/07/21 09:15:55;;;;;;;26.40;24.95;;;24.30;93.20;;;;;;5032689;28;20040;-74
2023/07/21 09:18:29;;;;;;;20.58;19.48;;;24.40;92.90;;;;;;5033570;28;20045;-74
2023/07/21 09:20:56;;;;;;;24.17;22.83;;;24.40;94.00;;;;;;5031846;28;20080;-75
2023/07/21 09:23:22;;;;;;;22.65;21.35;;;24.50;92.60;;;;;;5033004;28;20021;-74
2023/07/21 09:25:53;;;;;;;21.70;20.27;;;24.30;93.10;;;;;;5032931;28;20029;-74
2023/07/21 09:28:37;;;;;;;18.90;17.80;;;24.20;93.70;;;;;;5033253;28;20406;-75
2023/07/21 09:31:03;;;;;;;19.95;18.65;;;24.50;94.40;;;;;;5032416;28;20407;-74
2023/07/21 09:33:29;;;;;;;23.38;21.77;;;24.80;94.00;;;;;;5032989;28;20026;-75
2023/07/21 09:36:05;;;;;;;33.22;31.38;;;25.00;93.50;;;;;;5032546;28;20056;-75
2023/07/21 09:38:32;;;;;;;29.02;27.38;;;25.00;92.20;;;;;;5032534;28;20379;-74
2023/07/21 09:41:02;;;;;;;26.10;24.60;;;24.90;92.10;;;;;;5032599;28;20025;-74
2023/07/21 09:43:29;;;;;;;25.92;24.55;;;25.00;92.60;;;;;;5033223;28;20509;-74
2023/07/21 09:45:58;;;;;;;20.33;19.23;;;25.20;91.80;;;;;;5032416;28;20038;-74
2023/07/21 09:48:25;;;;;;;25.10;23.75;;;25.30;92.90;;;;;;5031558;28;20028;-74
2023/07/21 09:50:51;;;;;;;30.00;28.30;;;25.40;92.00;;;;;;5032399;28;20037;-75
2023/07/21 09:53:20;;;;;;;36.88;34.63;;;25.40;92.20;;;;;;5031409;28;20033;-74
2023/07/21 09:55:46;;;;;;;31.05;29.10;;;25.30;91.30;;;;;;5031151;28;20463;-74
2023/07/21 09:58:12;;;;;;;22.92;21.63;;;24.90;91.40;;;;;;5031445;28;20052;-75
2023/07/21 10:00:39;;;;;;;36.40;34.60;;;24.80;91.90;;;;;;5030766;28;20475;-74
2023/07/21 10:03:07;;;;;;;37.60;35.60;;;24.80;90.40;;;;;;5031268;28;20377;-75
2023/07/21 10:05:35;;;;;;;35.47;33.78;;;24.80;89.90;;;;;;5031472;28;20025;-74
2023/07/21 10:08:03;;;;;;;30.90;29.15;;;25.00;90.50;;;;;;5032131;28;20044;-75
2023/07/21 10:10:29;;;;;;;33.60;31.77;;;25.00;90.70;;;;;;5030682;28;20056;-75
2023/07/21 10:12:56;;;;;;;31.73;29.88;;;25.30;91.10;;;;;;5031396;28;20148;-74
2023/07/21 10:15:28;;;;;;;33.38;31.55;;;25.50;91.00;;;;;;5032046;28;20383;-74
2023/07/21 10:17:56;;;;;;;45.92;43.58;;;25.50;89.60;;;;;;5031768;28;20048;-74
2023/07/21 10:20:38;;;;;;;44.80;42.58;;;25.50;88.20;;;;;;5032051;28;20502;-74
2023/07/21 10:23:04;;;;;;;48.17;45.83;;;25.30;87.40;;;;;;5031411;28;20029;-75
2023/07/21 10:25:45;;;;;;;35.72;33.83;;;25.10;88.50;;;;;;5032249;28;20056;-74
2023/07/21 10:28:11;;;;;;;;;;;25.30;88.90;;;;;;5032883;28;20041;-74
2023/07/21 10:30:37;;;;;;;41.03;39.00;;;25.60;87.70;;;;;;5030380;28;19917;-74
2023/07/21 10:33:14;;;;;;;45.28;42.80;;;25.80;86.40;;;;;;5032150;28;20029;-74
2023/07/21 10:35:40;;;;;;;47.55;45.17;;;25.90;85.40;;;;;;5030347;28;20037;-74
2023/07/21 10:38:15;;;;;;;47.60;45.22;;;26.00;86.60;;;;;;5032505;28;20161;-75
2023/07/21 10:40:42;;;;;;;56.72;53.97;;;26.10;84.90;;;;;;5031839;28;20021;-74
2023/07/21 10:43:08;;;;;;;55.88;53.10;;;26.20;82.70;;;;;;5032196;28;20044;-74
2023/07/21 10:45:34;;;;;;;50.92;48.22;;;26.30;81.90;;;;;;5035384;28;20041;-75
2023/07/21 10:48:11;;;;;;;51.83;49.08;;;26.40;83.60;;;;;;5036487;28;20045;-73
2023/07/21 10:50:59;;;;;;;56.85;54.05;;;26.40;81.70;;;;;;5035859;28;20053;-74
2023/07/21 10:53:26;;;;;;;50.28;47.78;;;26.00;81.90;;;;;;5036016;28;20045;-74
2023/07/21 10:55:53;;;;;;;43.47;40.95;;;25.80;83.20;;;;;;5035701;28;20026;-75
2023/07/21 10:58:19;;;;;;;53.25;50.60;;;26.00;84.80;;;;;;5036375;28;20049;-73
2023/07/21 11:00:49;;;;;;;61.78;58.80;;;26.20;82.80;;;;;;5035349;28;20403;-73
2023/07/21 11:03:16;;;;;;;58.53;55.70;;;26.20;79.10;;;;;;5035822;28;20025;-75
2023/07/21 11:05:42;;;;;;;47.45;45.05;;;26.10;79.50;;;;;;5035768;28;20034;-73
2023/07/21 11:08:27;;;;;;;47.58;45.08;;;26.00;81.00;;;;;;5035904;28;20029;-74
2023/07/21 11:10:54;;;;;;;50.67;48.00;;;26.10;82.70;;;;;;5035891;28;20041;-75
2023/07/21 11:13:21;;;;;;;63.78;60.47;;;26.30;82.20;;;;;;5035919;28;20044;-75
2023/07/21 11:15:54;;;;;;;54.25;51.55;;;26.40;80.70;;;;;;5033497;28;20526;-74
2023/07/21 11:18:21;;;;;;;52.63;50.03;;;26.40;80.30;;;;;;5035248;28;20045;-74
2023/07/21 11:20:53;;;;;;;55.08;52.35;;;26.30;76.70;;;;;;5034037;28;20034;-75
2023/07/21 11:23:23;;;;;;;63.45;60.28;;;26.20;80.40;;;;;;5034292;28;20040;-74
2023/07/21 11:26:06;;;;;;;69.97;66.47;;;26.30;77.60;;;;;;5035590;28;20044;-74
2023/07/21 11:28:33;;;;;;;57.38;54.33;;;26.50;79.80;;;;;;5035684;28;20498;-74
2023/07/21 11:31:02;;;;;;;61.92;58.83;;;26.80;80.30;;;;;;5034758;28;20045;-74
2023/07/21 11:33:48;;;;;;;63.15;59.85;;;27.10;80.50;;;;;;5035176;28;20491;-74
2023/07/21 11:36:19;;;;;;;83.10;78.95;;;27.40;78.30;;;;;;5034535;28;20046;-75
2023/07/21 11:39:04;;;;;;;87.55;83.38;;;27.60;78.70;;;;;;5035282;28;20506;-74
2023/07/21 11:41:43;;;;;;;78.75;74.82;;;27.60;77.80;;;;;;5034777;28;20041;-75
2023/07/21 11:44:30;;;;;;;69.72;66.28;;;27.60;78.80;;;;;;5035225;28;20021;-76
2023/07/21 11:47:09;;;;;;;79.75;75.80;;;27.70;78.90;;;;;;5032761;28;20041;-75
2023/07/21 11:49:38;;;;;;;84.00;79.93;;;27.70;74.90;;;;;;5034823;28;20037;-75
2023/07/21 11:52:05;;;;;;;101.97;96.95;;;27.60;77.30;;;;;;5034779;28;20052;-75
2023/07/21 11:54:42;;;;;;;104.53;99.25;;;27.80;78.00;;;;;;5033608;28;20040;-75
2023/07/21 11:57:09;;;;;;;97.45;92.80;;;28.00;76.80;;;;;;5034501;28;20123;-75
2023/07/21 11:59:35;;;;;;;97.22;92.43;;;28.10;77.60;;;;;;5035326;28;20057;-75
2023/07/21 12:02:06;;;;;;;107.05;102.00;;;28.20;75.60;;;;;;5033735;28;20034;-74
2023/07/21 12:04:32;;;;;;;86.38;82.22;;;28.30;75.20;;;;;;5034164;28;20053;-75
2023/07/21 12:06:59;;;;;;;99.05;94.07;;;28.10;72.90;;;;;;5034363;28;20040;-75
2023/07/21 12:09:25;;;;;;;98.03;93.15;;;27.80;75.30;;;;;;5034824;28;20037;-75
2023/07/21 12:11:55;;;;;;;89.45;85.00;;;27.80;73.60;;;;;;5034210;28;20021;-75
2023/07/21 12:14:23;;;;;;;88.80;84.65;;;27.60;73.60;;;;;;5034651;28;20037;-75
2023/07/21 12:16:50;;;;;;;80.55;76.68;;;27.50;75.30;;;;;;5033928;28;20037;-74
2023/07/21 12:19:16;;;;;;;73.40;69.43;;;27.50;74.30;;;;;;5034370;28;20046;-75
2023/07/21 12:21:42;;;;;;;70.57;67.15;;;27.20;74.60;;;;;;5034573;28;20036;-74
2023/07/21 12:24:08;;;;;;;64.80;61.65;;;26.90;74.50;;;;;;5034513;28;20029;-76
2023/07/21 12:26:34;;;;;;;81.38;77.50;;;27.00;76.50;;;;;;5033986;28;20033;-74
2023/07/21 12:29:00;;;;;;;85.95;81.75;;;27.30;75.00;;;;;;5033060;28;20025;-74
2023/07/21 12:31:26;;;;;;;79.45;75.57;;;27.50;75.00;;;;;;5033705;28;20037;-75